Time;durP1;ratioP1;P1;durP2;ratioP2;P2;SDS_P1;SDS_P2;PMS_P1;PMS_P2;Temp;Humidity;BMP_temperature;BMP_pressure;BME280_temperature;BME280_humidity;BME280_pressure;Samples;Min_cycle;Max_cycle;Signal;HPM_P1;HPM_P2
2022/06/02 00:00:20;;;;;;;3.47;1.80;;;;;;;19.81;41.29;99563.44;4138889;28;20233;-65
2022/06/02 00:02:41;;;;;;;3.90;2.23;;;;;;;19.43;42.06;99559.00;4144498;28;20266;-65
2022/06/02 00:05:15;;;;;;;4.13;2.00;;;;;;;19.61;41.98;99571.75;4135173;28;20801;-67
2022/06/02 00:07:35;;;;;;;3.03;2.00;;;;;;;18.95;43.06;99586.59;4129922;28;20312;-66
2022/06/02 00:10:12;;;;;;;3.00;1.67;;;;;;;19.86;41.43;99560.88;4134487;28;20773;-66
2022/06/02 00:12:24;;;;;;;4.10;1.93;;;;;;;19.61;41.92;99570.94;4125851;28;20230;-66
2022/06/02 00:14:35;;;;;;;2.67;1.60;;;;;;;19.80;41.72;99566.34;4140456;28;20924;-67
2022/06/02 00:17:07;;;;;;;3.77;1.80;;;;;;;19.92;41.49;99588.03;4140580;28;20216;-66
2022/06/02 00:19:23;;;;;;;4.10;2.07;;;;;;;19.96;41.32;99581.09;4140103;28;20287;-67
2022/06/02 00:21:51;;;;;;;3.97;1.80;;;;;;;19.26;42.54;99599.19;4144772;28;20231;-66
2022/06/02 00:24:01;;;;;;;4.00;2.47;;;;;;;19.73;41.60;99569.13;4139196;28;20225;-64
2022/06/02 00:26:30;;;;;;;2.63;1.90;;;;;;;19.47;42.73;99584.50;4139599;28;20860;-67
2022/06/02 00:28:49;;;;;;;2.83;1.90;;;;;;;19.92;41.50;99599.63;4140699;28;20221;-65
2022/06/02 00:31:29;;;;;;;3.93;2.30;;;;;;;20.35;40.98;99587.94;4144763;28;20246;-64
2022/06/02 00:33:52;;;;;;;4.33;2.30;;;;;;;20.18;41.40;99593.13;4141441;28;20228;-65
2022/06/02 00:36:28;;;;;;;7.87;2.33;;;;;;;19.92;41.59;99601.50;4145062;28;21128;-65
2022/06/02 00:38:36;;;;;;;4.37;2.00;;;;;;;19.62;41.58;99635.44;4140334;28;20286;-65
2022/06/02 00:40:38;;;;;;;3.30;2.20;;;;;;;20.05;40.96;99621.06;4137597;28;21004;-65
2022/06/02 00:42:49;;;;;;;4.00;1.87;;;;;;;19.69;41.98;99632.69;4140635;28;20236;-65
2022/06/02 00:44:59;;;;;;;5.20;2.17;;;;;;;19.16;42.15;99646.56;4140861;28;20291;-65
2022/06/02 00:47:19;;;;;;;3.73;2.00;;;;;;;18.87;42.80;99646.94;4142720;28;21014;-65
2022/06/02 00:49:29;;;;;;;3.47;2.10;;;;;;;19.48;42.01;99614.97;4144446;28;20260;-65
2022/06/02 00:51:52;;;;;;;2.27;2.07;;;;;;;19.31;42.24;99628.19;4143161;28;20237;-65
2022/06/02 00:59:21;;;;;;;4.10;2.43;;;;;;;18.89;42.65;99631.38;4144732;28;20225;-65
2022/06/02 01:01:32;;;;;;;3.23;2.03;;;;;;;19.17;42.87;99600.53;4142646;28;20709;-65
2022/06/02 01:03:42;;;;;;;5.43;2.23;;;;;;;18.98;42.79;99629.25;4139239;28;20236;-65
2022/06/02 01:06:14;;;;;;;2.40;2.13;;;;;;;19.37;42.04;99610.28;4142001;28;21030;-65
2022/06/02 01:08:28;;;;;;;4.27;2.30;;;;;;;19.67;41.58;99602.38;4140538;28;20232;-65
2022/06/02 01:10:41;;;;;;;2.07;1.90;;;;;;;19.64;41.70;99622.53;4140272;28;20276;-68
2022/06/02 01:12:55;;;;;;;2.90;2.00;;;;;;;19.98;41.09;99633.81;4140923;28;20229;-65
2022/06/02 01:15:15;;;;;;;4.90;2.37;;;;;;;20.03;41.45;99625.88;4141072;28;20660;-65
2022/06/02 01:17:41;;;;;;;5.30;2.60;;;;;;;19.59;41.91;99625.09;4128184;28;20618;-67
2022/06/02 01:20:21;;;;;;;3.10;2.43;;;;;;;19.29;42.45;99601.44;4143133;28;20648;-65
2022/06/02 01:22:58;;;;;;;3.70;2.17;;;;;;;18.71;43.24;99613.22;4138307;28;20983;-65
2022/06/02 01:25:08;;;;;;;3.23;2.20;;;;;;;18.95;42.83;99597.38;4139732;28;20232;-65
2022/06/02 01:27:10;;;;;;;4.03;2.50;;;;;;;18.25;43.67;99646.56;4140809;28;20228;-65
2022/06/02 01:29:33;;;;;;;4.03;2.57;;;;;;;19.04;42.92;99584.44;4137784;28;20757;-65
2022/06/02 01:32:02;;;;;;;5.77;2.27;;;;;;;18.62;43.79;99598.34;4143135;28;20303;-65
2022/06/02 01:34:22;;;;;;;3.17;2.43;;;;;;;18.23;43.96;99610.16;4141736;28;20240;-65
2022/06/02 01:36:49;;;;;;;3.30;2.50;;;;;;;17.69;44.10;99647.09;4140937;28;20974;-65
2022/06/02 01:39:33;;;;;;;4.10;2.50;;;;;;;18.42;43.81;99578.78;4141649;28;20237;-65
2022/06/02 01:42:22;;;;;;;6.00;2.60;;;;;;;18.30;44.16;99582.16;4143595;28;20434;-65
2022/06/02 01:44:33;;;;;;;3.63;2.70;;;;;;;18.68;43.58;99594.81;4144570;28;20991;-65
2022/06/02 01:46:42;;;;;;;3.83;2.30;;;;;;;18.14;44.29;99613.06;4143011;28;20237;-65
2022/06/02 01:49:06;;;;;;;3.03;2.40;;;;;;;18.76;43.37;99594.56;4141562;28;20401;-65
2022/06/02 01:51:34;;;;;;;3.23;2.10;;;;;;;19.16;42.64;99615.03;4140177;28;20233;-65
2022/06/02 01:54:08;;;;;;;3.73;2.30;;;;;;;19.27;42.34;99600.84;4142044;28;20233;-65
2022/06/02 01:56:16;;;;;;;3.40;2.47;;;;;;;18.26;43.76;99648.22;4137337;28;20290;-65
2022/06/02 01:58:46;;;;;;;2.97;2.60;;;;;;;18.29;43.86;99631.66;4137662;28;20295;-65
2022/06/02 02:01:16;;;;;;;3.40;2.40;;;;;;;18.64;43.81;99625.06;4140030;28;20237;-65
2022/06/02 02:03:26;;;;;;;5.00;2.30;;;;;;;18.52;43.77;99633.00;4123834;28;20256;-65
2022/06/02 02:05:59;;;;;;;2.43;2.23;;;;;;;18.20;44.19;99663.34;4129872;28;20229;-65
2022/06/02 02:08:35;;;;;;;2.53;2.27;;;;;;;18.06;44.30;99688.63;4136004;28;20284;-65
2022/06/02 02:11:05;;;;;;;2.80;2.30;;;;;;;18.08;45.15;99640.81;4137809;28;20286;-65
2022/06/02 02:13:10;;;;;;;4.57;2.40;;;;;;;18.67;43.70;99621.97;4135447;28;20320;-65
2022/06/02 02:15:17;;;;;;;2.70;2.40;;;;;;;18.62;44.08;99633.38;4136340;28;20233;-65
2022/06/02 02:17:37;;;;;;;5.17;2.40;;;;;;;18.46;44.79;99640.06;4140969;28;20968;-65
2022/06/02 02:19:52;;;;;;;3.53;2.60;;;;;;;18.41;44.88;99639.91;4141221;28;20295;-65
2022/06/02 02:22:18;;;;;;;4.00;2.57;;;;;;;18.72;43.97;99624.81;4138170;28;20233;-65
2022/06/02 02:24:33;;;;;;;5.63;2.47;;;;;;;18.19;45.28;99656.31;4137261;28;20233;-65
2022/06/02 02:26:44;;;;;;;6.07;2.80;;;;;;;18.78;43.89;99627.47;4142597;28;20233;-65
2022/06/02 02:28:52;;;;;;;2.67;2.20;;;;;;;19.12;43.23;99620.03;4145225;28;20232;-65
2022/06/02 02:31:05;;;;;;;2.50;2.30;;;;;;;18.97;43.44;99622.22;4138777;28;20811;-65
2022/06/02 02:33:22;;;;;;;3.50;2.40;;;;;;;18.91;43.90;99641.94;4140475;28;20878;-65
2022/06/02 02:35:38;;;;;;;3.17;2.43;;;;;;;18.70;43.97;99638.50;4142729;28;20286;-65
2022/06/02 02:37:52;;;;;;;5.67;2.43;;;;;;;18.88;44.04;99642.38;4141006;28;20241;-66
2022/06/02 02:40:01;;;;;;;3.93;2.63;;;;;;;18.39;44.63;99677.78;4137971;28;22144;-66
2022/06/02 02:42:17;;;;;;;3.40;2.67;;;;;;;18.70;44.34;99629.59;4145107;28;20712;-65
2022/06/02 02:44:26;;;;;;;3.57;2.20;;;;;;;19.00;43.51;99634.41;4135982;28;20237;-65
2022/06/02 02:46:57;;;;;;;3.17;2.60;;;;;;;19.24;43.17;99651.69;4135869;28;20240;-65
2022/06/02 02:49:12;;;;;;;4.13;2.40;;;;;;;18.62;44.04;99703.38;4142858;28;20236;-65
2022/06/02 02:51:33;;;;;;;3.90;2.50;;;;;;;18.42;45.00;99689.16;4136805;28;20233;-65
2022/06/02 02:53:51;;;;;;;2.70;2.23;;;;;;;18.47;44.38;99665.13;4141422;28;20233;-65
2022/06/02 02:55:58;;;;;;;3.13;2.40;;;;;;;18.62;43.96;99652.22;4138450;28;20274;-65
2022/06/02 02:58:14;;;;;;;4.60;2.47;;;;;;;18.57;44.05;99660.09;4137886;28;20251;-65
2022/06/02 03:00:31;;;;;;;3.20;2.60;;;;;;;19.33;42.67;99635.03;4137351;28;20280;-65
2022/06/02 03:02:47;;;;;;;2.70;2.50;;;;;;;18.66;43.39;99707.31;4131617;28;20240;-65
2022/06/02 03:05:24;;;;;;;2.73;2.53;;;;;;;19.56;42.50;99651.66;4142442;28;20233;-65
2022/06/02 03:07:29;;;;;;;3.67;2.70;;;;;;;19.02;43.09;99672.78;4139795;28;20762;-65
2022/06/02 03:10:03;;;;;;;2.93;2.73;;;;;;;18.64;44.13;99668.16;4140642;28;20239;-65
2022/06/02 03:12:17;;;;;;;4.90;2.80;;;;;;;18.66;43.44;99688.47;4125473;28;20236;-65
2022/06/02 03:14:40;;;;;;;6.33;3.00;;;;;;;17.71;45.24;99729.19;4132239;28;20260;-65
2022/06/02 03:16:42;;;;;;;4.50;3.07;;;;;;;18.55;43.63;99665.72;4133040;28;20241;-65
2022/06/02 03:19:18;;;;;;;6.57;2.80;;;;;;;17.93;45.12;99670.63;4137120;28;20236;-67
2022/06/02 03:21:44;;;;;;;3.90;3.03;;;;;;;18.35;44.24;99668.47;4138647;28;20237;-65
2022/06/02 03:24:20;;;;;;;3.40;2.60;;;;;;;18.72;43.42;99659.84;4139181;28;20237;-67
2022/06/02 03:26:37;;;;;;;4.07;2.70;;;;;;;18.25;44.67;99660.03;4141652;28;20241;-65
2022/06/02 03:28:50;;;;;;;4.87;2.83;;;;;;;17.81;45.36;99681.19;4138936;28;20828;-65
2022/06/02 03:31:07;;;;;;;2.83;2.53;;;;;;;17.10;46.55;99697.84;4140017;28;20233;-65
2022/06/02 03:33:12;;;;;;;3.67;2.77;;;;;;;17.59;45.35;99685.13;4141130;28;20237;-65
2022/06/02 03:35:27;;;;;;;4.30;2.87;;;;;;;18.07;44.63;99655.31;4143504;28;20236;-66
2022/06/02 03:38:02;;;;;;;4.60;3.10;;;;;;;17.67;45.82;99701.88;4138908;28;20229;-69
2022/06/02 03:40:10;;;;;;;3.97;2.80;;;;;;;18.42;44.11;99643.41;4132784;28;20776;-68
2022/06/02 03:42:18;;;;;;;2.93;2.50;;;;;;;18.27;44.47;99682.16;4138814;28;20237;-69
2022/06/02 03:44:46;;;;;;;6.00;3.47;;;;;;;18.34;44.68;99676.75;4137483;28;20255;-68
2022/06/02 03:47:26;;;;;;;3.93;3.47;;;;;;;18.12;44.35;99721.94;4140411;28;20229;-65
2022/06/02 03:49:37;;;;;;;4.93;2.90;;;;;;;18.20;44.51;99701.00;4139533;28;20228;-65
2022/06/02 03:51:57;;;;;;;4.07;3.10;;;;;;;17.98;44.88;99731.88;4140528;28;20255;-65
2022/06/02 03:54:18;;;;;;;3.97;3.00;;;;;;;18.38;43.94;99703.03;4140008;28;20280;-65
2022/06/02 03:56:22;;;;;;;4.10;3.00;;;;;;;17.95;44.87;99708.91;4141110;28;20240;-66
2022/06/02 03:58:50;;;;;;;4.23;3.30;;;;;;;18.18;44.52;99694.19;4138992;28;20292;-65
2022/06/02 04:00:59;;;;;;;4.17;3.00;;;;;;;17.75;45.05;99741.19;4139528;28;20242;-65
2022/06/02 04:03:04;;;;;;;4.80;3.13;;;;;;;18.51;43.95;99687.88;4140314;28;20252;-65
2022/06/02 04:05:27;;;;;;;4.50;3.70;;;;;;;18.78;43.37;99685.94;4136793;28;20240;-65
2022/06/02 04:07:38;;;;;;;3.33;3.03;;;;;;;18.34;44.41;99692.91;4136442;28;20691;-65
2022/06/02 04:09:48;;;;;;;3.30;3.00;;;;;;;18.56;44.07;99702.38;4139723;28;20245;-65
2022/06/02 04:14:29;;;;;;;4.43;3.43;;;;;;;17.93;44.73;99750.50;4142469;28;20230;-65
2022/06/02 04:17:21;;;;;;;3.77;3.33;;;;;;;18.28;44.25;99672.25;4140385;28;20243;-65
2022/06/02 04:22:39;;;;;;;3.13;2.83;;;;;;;17.61;45.45;99726.06;4165591;28;20825;-65
2022/06/02 04:25:02;;;;;;;4.23;3.27;;;;;;;17.18;46.05;99746.03;4150852;28;20303;-65
2022/06/02 04:27:31;;;;;;;5.67;3.27;;;;;;;17.63;45.18;99718.63;4143387;28;20259;-65
2022/06/02 04:30:03;;;;;;;4.30;3.30;;;;;;;17.18;45.86;99726.41;4141953;28;20237;-65
2022/06/02 04:32:20;;;;;;;3.20;2.90;;;;;;;16.69;47.13;99725.63;4136936;28;20229;-65
2022/06/02 04:34:35;;;;;;;4.03;3.53;;;;;;;16.72;47.02;99703.72;4140363;28;21004;-65
2022/06/02 04:37:02;;;;;;;4.27;3.47;;;;;;;17.04;46.54;99666.44;4138738;28;20240;-65
2022/06/02 04:39:12;;;;;;;5.80;3.83;;;;;;;16.35;47.96;99721.88;4139880;28;20229;-65
2022/06/02 04:41:16;;;;;;;4.77;3.37;;;;;;;16.80;47.05;99667.81;4140530;28;20722;-65
2022/06/02 04:43:36;;;;;;;4.30;3.53;;;;;;;15.89;48.10;99763.44;4142288;28;20230;-65
2022/06/02 04:46:07;;;;;;;3.90;3.60;;;;;;;16.65;46.91;99722.47;4139199;28;20871;-68
2022/06/02 04:48:25;;;;;;;4.30;3.57;;;;;;;17.45;45.87;99655.56;4143816;28;20263;-69
2022/06/02 04:50:48;;;;;;;4.43;3.40;;;;;;;17.18;46.52;99660.06;4138566;28;20232;-69
2022/06/02 04:52:58;;;;;;;4.27;3.73;;;;;;;17.47;45.89;99674.16;4142045;28;20233;-70
2022/06/02 04:55:11;;;;;;;4.27;3.17;;;;;;;17.22;45.81;99717.72;4144296;28;20979;-69
2022/06/02 04:57:42;;;;;;;3.73;3.40;;;;;;;17.04;46.47;99693.28;4141920;28;20265;-69
2022/06/02 05:02:52;;;;;;;4.97;3.60;;;;;;;16.60;47.99;99690.03;4209811;27;20811;-69
2022/06/02 05:05:02;;;;;;;6.83;4.00;;;;;;;17.75;45.66;99646.22;4202822;28;20237;-69
2022/06/02 05:07:16;;;;;;;4.07;3.50;;;;;;;17.33;46.12;99737.00;4194769;28;20301;-69
2022/06/02 05:09:30;;;;;;;3.93;3.50;;;;;;;17.38;46.44;99723.75;4213739;28;20303;-69
2022/06/02 05:12:03;;;;;;;4.83;3.47;;;;;;;18.42;44.50;99678.41;4203351;28;20238;-69
2022/06/02 05:14:46;;;;;;;3.97;3.50;;;;;;;18.32;44.84;99693.13;4186524;28;20231;-69
2022/06/02 05:16:57;;;;;;;4.00;3.43;;;;;;;18.14;45.53;99734.16;4147507;28;20276;-69
2022/06/02 05:19:02;;;;;;;4.10;3.73;;;;;;;17.81;45.62;99731.47;4148685;28;20260;-69
2022/06/02 05:21:12;;;;;;;4.07;3.50;;;;;;;17.09;46.36;99785.69;4149951;28;20228;-69
2022/06/02 05:23:53;;;;;;;4.10;3.50;;;;;;;17.45;45.94;99757.69;4190990;28;20289;-69
2022/06/02 05:26:15;;;;;;;4.53;3.80;;;;;;;17.94;45.44;99738.72;4191985;28;20222;-68
2022/06/02 05:28:29;;;;;;;3.97;3.67;;;;;;;18.65;44.13;99711.03;4190420;28;20227;-69
2022/06/02 05:30:33;;;;;;;4.20;3.80;;;;;;;18.78;44.17;99731.72;4185637;28;20726;-69
2022/06/02 05:32:58;;;;;;;5.90;3.93;;;;;;;18.01;45.39;99764.56;4184137;28;20232;-69
2022/06/02 05:35:21;;;;;;;4.87;4.00;;;;;;;18.29;44.53;99777.00;4172474;28;20227;-69
2022/06/02 05:37:41;;;;;;;9.30;3.90;;;;;;;18.33;45.32;99742.41;4187651;27;20227;-69
2022/06/02 05:40:01;;;;;;;4.43;3.90;;;;;;;19.02;44.00;99705.09;4184999;28;20796;-70
2022/06/02 05:42:13;;;;;;;3.50;3.20;;;;;;;18.56;44.55;99744.59;4204636;28;20714;-69
2022/06/02 05:44:18;;;;;;;4.10;3.50;;;;;;;18.55;44.50;99776.09;4206648;28;20226;-69
2022/06/02 05:46:29;;;;;;;3.97;3.40;;;;;;;18.82;44.73;99722.19;4202048;28;20280;-69
2022/06/02 05:48:54;;;;;;;4.53;3.30;;;;;;;18.39;44.83;99753.16;4204433;28;20225;-69
2022/06/02 05:51:08;;;;;;;4.67;3.90;;;;;;;19.28;44.12;99701.41;4204255;28;20300;-70
2022/06/02 05:53:31;;;;;;;5.03;3.57;;;;;;;19.24;43.64;99752.22;4197773;28;20227;-69
2022/06/02 05:55:46;;;;;;;4.47;3.60;;;;;;;18.67;45.06;99805.91;4206505;28;21778;-69
2022/06/02 05:58:35;;;;;;;4.10;3.20;;;;;;;18.75;44.80;99776.03;4205325;28;20238;-69
2022/06/02 06:00:37;;;;;;;5.13;3.73;;;;;;;18.90;44.55;99769.63;4119048;28;20276;-69
2022/06/02 06:03:11;;;;;;;4.63;3.40;;;;;;;19.08;44.76;99755.41;4189676;28;20243;-70
2022/06/02 06:05:22;;;;;;;3.70;3.30;;;;;;;19.04;44.63;99781.16;4131069;28;20234;-69
2022/06/02 06:07:42;;;;;;;4.07;3.63;;;;;;;19.18;44.29;99773.81;4205084;28;20226;-69
2022/06/02 06:10:20;;;;;;;5.83;3.57;;;;;;;19.58;44.38;99749.34;4203395;28;20255;-69
2022/06/02 06:12:40;;;;;;;5.17;3.47;;;;;;;20.06;43.75;99773.88;4200292;28;20227;-69
2022/06/02 06:15:12;;;;;;;5.20;2.80;;;;;;;19.93;43.53;99816.34;4191102;28;20344;-68
2022/06/02 06:17:20;;;;;;;5.77;3.00;;;;;;;19.80;44.24;99766.00;4190764;28;20597;-71
2022/06/02 06:19:44;;;;;;;4.33;2.90;;;;;;;19.42;45.05;99835.09;4191055;28;20222;-70
2022/06/02 06:22:07;;;;;;;4.07;2.87;;;;;;;18.46;45.14;99865.38;4190049;28;20304;-70
2022/06/02 06:24:09;;;;;;;4.00;3.10;;;;;;;19.74;44.09;99778.50;4187861;28;20223;-70
2022/06/02 06:26:52;;;;;;;4.80;3.20;;;;;;;20.44;43.17;99781.00;4187500;28;20227;-70
2022/06/02 06:29:21;;;;;;;4.00;2.90;;;;;;;20.44;43.12;99750.47;4189367;28;20243;-70
2022/06/02 06:31:43;;;;;;;3.03;2.70;;;;;;;19.31;43.74;99846.53;4175482;28;20235;-69
2022/06/02 06:33:54;;;;;;;3.33;3.03;;;;;;;19.79;44.24;99805.66;4201833;28;20845;-71
2022/06/02 06:36:17;;;;;;;3.90;2.60;;;;;;;19.50;44.20;99836.69;4193229;28;20727;-71
2022/06/02 06:38:37;;;;;;;3.83;2.70;;;;;;;19.04;43.97;99887.06;4192918;28;20799;-71
2022/06/02 06:40:45;;;;;;;3.90;3.13;;;;;;;20.31;43.16;99778.44;4192329;28;20235;-72
2022/06/02 06:43:19;;;;;;;4.30;3.07;;;;;;;19.54;43.58;99837.09;4185133;28;20666;-69
2022/06/02 06:45:40;;;;;;;4.00;2.97;;;;;;;20.66;42.26;99774.34;4137634;28;20383;-71
2022/06/02 06:47:53;;;;;;;4.40;3.40;;;;;;;20.85;42.67;99764.34;4187999;28;20270;-71
2022/06/02 06:50:16;;;;;;;4.90;3.20;;;;;;;20.28;43.96;99796.97;4184248;28;20227;-71
2022/06/02 06:52:43;;;;;;;4.73;2.93;;;;;;;19.92;44.03;99844.38;4178902;28;20224;-72
2022/06/02 06:55:06;;;;;;;4.90;3.30;;;;;;;20.13;43.78;99790.00;4172030;28;21039;-71
2022/06/02 06:57:21;;;;;;;5.80;3.30;;;;;;;20.14;43.16;99826.75;4186976;28;20792;-71
2022/06/02 06:59:47;;;;;;;6.33;3.20;;;;;;;20.53;42.77;99773.44;4182526;28;20231;-71
2022/06/02 07:02:13;;;;;;;3.67;3.00;;;;;;;20.39;42.72;99788.94;4179373;28;20247;-71
2022/06/02 07:04:36;;;;;;;6.73;3.30;;;;;;;19.93;43.83;99829.84;4154233;28;20240;-70
2022/06/02 07:06:40;;;;;;;3.47;3.03;;;;;;;19.58;44.32;99844.56;4176861;28;20223;-71
2022/06/02 07:09:01;;;;;;;4.60;3.00;;;;;;;19.64;42.97;99856.34;4165113;28;20304;-70
2022/06/02 07:13:49;;;;;;;4.80;2.87;;;;;;;20.70;41.34;99775.53;4193473;28;20226;-71
2022/06/02 07:15:53;;;;;;;6.97;2.50;;;;;;;20.27;42.41;99798.03;4189771;28;20303;-71
2022/06/02 07:18:04;;;;;;;5.17;2.63;;;;;;;20.31;41.38;99789.25;4193117;28;20227;-71
2022/06/02 07:20:31;;;;;;;3.47;2.43;;;;;;;20.99;40.41;99764.00;4186909;28;20227;-71
2022/06/02 07:22:47;;;;;;;3.93;2.57;;;;;;;20.29;41.07;99855.31;4195479;28;20325;-71
2022/06/02 07:24:55;;;;;;;2.60;2.40;;;;;;;20.18;40.83;99846.88;4187429;28;20782;-71
2022/06/02 07:27:10;;;;;;;8.33;2.50;;;;;;;19.96;40.57;99837.47;4187258;28;20222;-70
2022/06/02 07:29:51;;;;;;;4.70;2.67;;;;;;;19.84;41.35;99849.00;4188342;28;20231;-70
2022/06/02 07:32:14;;;;;;;2.07;1.97;;;;;;;20.32;40.36;99827.88;4123016;28;20276;-72
2022/06/02 07:34:42;;;;;;;4.03;2.20;;;;;;;20.24;40.56;99867.56;4120897;28;20651;-72
2022/06/02 07:36:56;;;;;;;4.00;2.53;;;;;;;19.66;40.30;99840.81;4139379;28;20232;-72
2022/06/02 07:39:21;;;;;;;3.17;1.90;;;;;;;19.77;40.92;99841.97;4169012;28;20285;-72
2022/06/02 07:41:38;;;;;;;2.40;2.20;;;;;;;20.14;40.74;99834.84;4188629;28;20769;-73
2022/06/02 07:43:58;;;;;;;3.97;2.60;;;;;;;19.84;40.75;99840.03;4188810;28;20243;-72
2022/06/02 07:46:08;;;;;;;2.77;2.00;;;;;;;20.16;40.46;99826.53;4187024;28;20789;-71
2022/06/02 07:48:22;;;;;;;1.97;1.77;;;;;;;20.51;40.12;99807.13;4193058;28;20234;-71
2022/06/02 07:50:29;;;;;;;7.40;2.37;;;;;;;20.58;40.15;99815.97;4192887;28;20732;-72
2022/06/02 07:52:57;;;;;;;2.70;1.90;;;;;;;20.72;39.58;99833.72;4176699;28;20259;-71
2022/06/02 07:55:20;;;;;;;7.27;2.30;;;;;;;20.21;39.67;99892.31;4185106;28;20227;-72
2022/06/02 07:57:44;;;;;;;5.47;3.03;;;;;;;20.31;40.44;99881.03;4178102;28;20844;-72
2022/06/02 08:00:03;;;;;;;3.63;2.07;;;;;;;20.46;39.83;99861.00;4167087;28;20232;-72
2022/06/02 08:02:46;;;;;;;1.67;1.57;;;;;;;19.94;39.66;99917.81;4170516;28;20796;-72
2022/06/02 08:05:13;;;;;;;2.67;2.20;;;;;;;20.55;39.84;99884.81;4168113;28;20754;-72
2022/06/02 08:07:27;;;;;;;2.97;2.10;;;;;;;20.86;39.31;99860.59;4188974;28;20738;-72
2022/06/02 08:09:50;;;;;;;2.57;1.97;;;;;;;21.23;39.22;99801.13;4191683;28;20289;-72
2022/06/02 08:12:00;;;;;;;8.30;2.50;;;;;;;20.92;39.65;99856.97;4194044;28;20752;-72
2022/06/02 08:14:22;;;;;;;3.40;2.13;;;;;;;20.65;40.07;99842.94;4191983;28;20279;-72
2022/06/02 08:16:23;;;;;;;3.97;2.00;;;;;;;20.77;39.93;99835.75;4188296;28;20657;-72
2022/06/02 08:18:43;;;;;;;3.80;2.30;;;;;;;21.46;39.38;99811.22;4190929;28;20236;-72
2022/06/02 08:21:15;;;;;;;7.37;2.00;;;;;;;21.12;38.65;99895.47;4184717;28;20303;-72
2022/06/02 08:23:23;;;;;;;3.07;2.10;;;;;;;21.47;38.82;99856.16;4187503;28;20228;-72
2022/06/02 08:25:37;;;;;;;4.40;2.17;;;;;;;21.50;39.09;99844.88;4183118;28;20236;-72
2022/06/02 08:28:20;;;;;;;2.83;2.33;;;;;;;21.17;39.51;99878.56;4182008;28;20238;-72
2022/06/02 08:30:29;;;;;;;4.80;2.40;;;;;;;21.59;39.57;99811.03;4086806;28;20269;-72
2022/06/02 08:32:45;;;;;;;5.57;1.83;;;;;;;21.76;39.88;99827.44;4142526;28;20223;-72
2022/06/02 08:35:13;;;;;;;2.20;2.00;;;;;;;21.60;39.08;99823.50;4172710;28;20778;-72
2022/06/02 08:37:20;;;;;;;2.83;1.80;;;;;;;21.81;39.20;99837.59;4168092;28;20297;-72
2022/06/02 08:39:34;;;;;;;3.00;2.30;;;;;;;21.52;39.24;99894.16;4164075;28;20280;-71
2022/06/02 08:42:08;;;;;;;3.00;1.90;;;;;;;21.31;39.83;99879.25;4169848;28;20236;-72
2022/06/02 08:44:35;;;;;;;4.43;1.90;;;;;;;21.82;39.24;99867.13;4158024;28;20764;-72
2022/06/02 08:46:58;;;;;;;3.93;2.13;;;;;;;21.63;39.28;99838.47;4175517;28;20231;-72
2022/06/02 08:49:33;;;;;;;6.80;2.23;;;;;;;21.86;39.74;99845.84;4181351;28;20276;-73
2022/06/02 08:52:21;;;;;;;5.73;2.00;;;;;;;21.79;38.57;99864.88;4174649;28;20232;-72
2022/06/02 08:54:28;;;;;;;3.60;2.20;;;;;;;21.33;38.47;99902.28;4134053;28;20245;-72
2022/06/02 08:56:55;;;;;;;1.87;1.70;;;;;;;21.42;39.80;99845.19;4189889;28;20250;-72
2022/06/02 08:59:08;;;;;;;5.50;2.13;;;;;;;21.93;39.08;99835.72;4190069;28;20715;-72
2022/06/02 09:01:28;;;;;;;6.53;2.07;;;;;;;22.20;38.75;99840.72;4169447;28;20561;-76
2022/06/02 09:04:00;;;;;;;2.20;2.00;;;;;;;21.57;38.67;99869.94;4177861;28;20231;-72
2022/06/02 09:06:19;;;;;;;2.83;2.10;;;;;;;22.06;38.27;99862.59;4186619;28;20231;-72
2022/06/02 09:08:40;;;;;;;3.22;1.95;;;;;;;21.66;37.57;99900.25;4188089;28;20231;-72
2022/06/02 09:11:06;;;;;;;4.23;2.17;;;;;;;21.82;37.81;99869.03;4185647;28;20669;-72
2022/06/02 09:13:32;;;;;;;4.65;1.60;;;;;;;21.48;37.43;99885.69;4189123;28;20534;-72
2022/06/02 09:15:40;;;;;;;1.88;1.60;;;;;;;22.82;36.86;99822.09;4171182;28;20317;-72
2022/06/02 09:18:01;;;;;;;2.20;2.00;;;;;;;22.57;37.57;99826.97;4185935;28;20238;-72
2022/06/02 09:20:41;;;;;;;2.45;1.90;;;;;;;23.12;37.00;99796.72;4183079;28;20240;-72
2022/06/02 09:23:08;;;;;;;3.00;1.92;;;;;;;23.47;36.39;99841.88;4161904;28;20613;-72
2022/06/02 09:25:42;;;;;;;1.90;1.80;;;;;;;23.61;36.43;99838.91;4185108;28;20838;-72
2022/06/02 09:28:31;;;;;;;4.60;1.75;;;;;;;23.39;36.07;99866.69;4147376;28;20223;-72
2022/06/02 09:30:57;;;;;;;4.77;1.80;;;;;;;22.42;37.49;99885.19;4154922;28;20284;-72
2022/06/02 09:33:56;;;;;;;3.20;1.90;;;;;;;22.90;36.73;99841.78;4174349;28;20231;-72
2022/06/02 09:36:26;;;;;;;1.77;1.67;;;;;;;23.01;36.99;99839.09;4123925;28;20285;-72
2022/06/02 09:38:47;;;;;;;1.93;1.50;;;;;;;22.74;36.72;99882.13;4117624;28;20226;-73
2022/06/02 09:41:18;;;;;;;3.10;1.80;;;;;;;22.99;36.96;99857.47;4146815;28;20904;-73
2022/06/02 09:43:49;;;;;;;1.98;1.75;;;;;;;23.23;36.04;99830.28;4186580;28;20242;-73
2022/06/02 09:46:25;;;;;;;3.47;1.75;;;;;;;22.52;37.03;99849.34;4178561;28;20289;-73
2022/06/02 09:49:01;;;;;;;4.72;2.00;;;;;;;23.09;36.70;99820.78;4185919;28;21013;-73
2022/06/02 09:51:33;;;;;;;2.00;1.60;;;;;;;22.79;36.83;99881.41;4190380;28;20243;-72
2022/06/02 09:53:42;;;;;;;1.55;1.40;;;;;;;22.52;36.66;99859.38;4188615;28;20292;-73
2022/06/02 09:56:12;;;;;;;4.18;1.55;;;;;;;22.15;37.09;99884.75;4191512;28;20222;-72
2022/06/02 09:58:45;;;;;;;3.35;1.63;;;;;;;22.84;36.28;99819.16;4168303;28;21119;-73
2022/06/02 10:01:22;;;;;;;6.43;2.33;;;;;;;23.47;36.17;99825.59;4186834;28;20265;-73
2022/06/02 10:03:51;;;;;;;2.08;1.75;;;;;;;23.82;36.59;99832.75;4168787;28;20224;-72
2022/06/02 10:06:30;;;;;;;2.33;1.80;;;;;;;24.01;35.64;99816.22;4171099;28;20708;-73
2022/06/02 10:09:05;;;;;;;3.67;1.60;;;;;;;23.36;36.44;99854.41;4152070;28;20228;-73
2022/06/02 10:11:27;;;;;;;3.58;1.92;;;;;;;23.75;35.89;99826.66;4171496;28;20312;-72
2022/06/02 10:13:29;;;;;;;2.33;1.63;;;;;;;23.73;35.50;99829.63;4191401;28;20215;-72
2022/06/02 10:15:40;;;;;;;2.97;1.60;;;;;;;23.63;35.83;99861.19;4190042;28;20227;-72
2022/06/02 10:17:56;;;;;;;1.40;1.30;;;;;;;23.54;34.72;99853.41;4186677;28;20265;-73
2022/06/02 10:20:28;;;;;;;4.80;1.60;;;;;;;23.74;35.41;99819.59;4181576;28;20300;-72
2022/06/02 10:22:47;;;;;;;2.38;1.30;;;;;;;23.35;36.06;99835.66;4191902;28;20219;-73
2022/06/02 10:25:23;;;;;;;2.10;1.58;;;;;;;23.16;35.75;99829.59;4172799;28;20254;-73
2022/06/02 10:27:28;;;;;;;3.25;1.48;;;;;;;24.01;36.35;99810.78;4186443;28;20223;-73
2022/06/02 10:29:43;;;;;;;4.63;1.50;;;;;;;23.61;35.74;99804.44;4183318;28;20227;-73
2022/06/02 10:32:15;;;;;;;2.08;1.40;;;;;;;24.54;36.48;99793.16;4192741;28;20278;-74
2022/06/02 10:35:11;;;;;;;1.85;1.65;;;;;;;24.60;35.72;99826.69;4192177;28;20644;-73
2022/06/02 10:37:33;;;;;;;1.70;1.60;;;;;;;24.66;35.35;99817.50;4145991;28;20239;-74
2022/06/02 10:40:00;;;;;;;2.58;1.60;;;;;;;23.99;35.72;99832.78;4193902;28;20617;-74
2022/06/02 10:42:27;;;;;;;1.67;1.40;;;;;;;24.43;35.38;99826.69;4193804;28;20281;-74
2022/06/02 10:45:08;;;;;;;5.72;1.98;;;;;;;24.26;35.08;99815.84;4175676;28;20230;-74
2022/06/02 10:47:35;;;;;;;3.78;1.52;;;;;;;24.10;35.65;99818.28;4160238;28;20829;-73
2022/06/02 10:49:44;;;;;;;4.03;1.60;;;;;;;23.76;35.52;99850.03;4181816;28;20227;-73
2022/06/02 10:52:23;;;;;;;2.70;1.38;;;;;;;23.74;35.39;99820.41;4190927;28;20231;-73
2022/06/02 10:54:45;;;;;;;2.45;1.33;;;;;;;23.84;35.44;99816.22;4161842;28;20224;-73
2022/06/02 10:57:08;;;;;;;4.22;1.60;;;;;;;24.68;35.69;99790.88;4183275;28;20231;-73
2022/06/02 10:59:47;;;;;;;2.72;1.50;;;;;;;24.65;35.63;99797.66;4190954;28;20325;-73
2022/06/02 11:04:25;;;;;;;2.15;1.45;;;;;;;24.75;35.19;99755.34;3924248;27;8290576;-74
2022/06/02 11:06:45;;;;;;;1.45;1.35;;;;;;;25.30;34.95;99754.34;4201427;28;20211;-73
2022/06/02 11:09:34;;;;;;;3.03;1.65;;;;;;;25.63;35.04;99768.00;4198940;28;20272;-73
2022/06/02 11:12:00;;;;;;;4.10;1.80;;;;;;;24.82;35.08;99794.09;4144606;28;20229;-73
2022/06/02 11:14:38;;;;;;;2.95;1.60;;;;;;;24.83;35.37;99809.31;4195349;28;20206;-73
2022/06/02 11:17:00;;;;;;;2.03;1.75;;;;;;;24.65;34.94;99792.22;4199966;28;20207;-73
2022/06/02 11:19:08;;;;;;;4.13;1.52;;;;;;;25.11;35.48;99791.16;4201825;28;20226;-73
2022/06/02 11:21:41;;;;;;;2.40;1.45;;;;;;;25.87;34.35;99788.38;4194142;28;20246;-73
2022/06/02 11:24:28;;;;;;;3.75;2.00;;;;;;;24.89;35.44;99815.66;4196190;28;20199;-73